logo
Search for airport 
image banner adimage banner adimage banner ad
image banner ad

OIBK - Kish Island / Kish / Secondary International Ad

Located in Kish, Iran, Islamic Republic of

ICAO - OIBK, IATA - KIH

Data provided by Airmate  

General information

Coordinates: N26°31'39" E53°58'45"
Elevation is 99 feet MSL.
 
View others Airports in Hormozgan Province

Operational data

Special qualification required
Current time UTC:
Current local time:
Weather
METAR: OIBK 130600Z 29019KT CAVOK 27/17 Q1007
TAF: TAF OIBK 122300Z 1300/1406 27012KT 7000 SCT025 SCT090 TEMPO 1309/1317 27022KT
View NOTAMs / SUP AIP / TFR affecting this airport [VIEW]
Communications frequencies: [VIEW]

Runways:

RWY identifierQFULength (ft)Width (ft)SurfaceLDA (ft)
09L95°11972148ASP
27R275°11972148ASP
09R95°12004148ASP
27L275°12004148ASP

Airport contact information

Address: Kish Iran, Islamic Republic of

Satellite view of OIBK